Terminal Aerodrome Forecast
Issued by NWS Paducah, KY

Home | Current Version | Previous Version | Text Only | Print | Product List | Glossary On
Versions: 1 2 3 4 5 6 7 8 9 10 11 12 13
000
FTUS43 KPAH 012340
TAFPAH
TAF
KPAH 012340Z 0200/0224 14007KT P6SM BKN120
     FM020600 18012G20KT P6SM -TSRA SCT025CB BKN040
      TEMPO 0207/0211 3SM TSRA BKN020CB
     FM021100 21013G22KT P6SM BKN020
     FM021600 22013G22KT P6SM SCT025 BKN040=

USA.gov is the U.S. government's official web portal to all federal, state and local government web resources and services.